Rea, Alex
United StatesManBorn 19732002 – 2025Runner id 47572
Events
42
2002 – 2025
Best pace
11.195
km/h · 2012
Best finish
2nd
of 20 · 2016
Distance raced
2,957
km · splits not double-counted
Pace over time
km/h · higher is faster
Pace over time: 42 races from 2002 to 2025, ranging from 4.64 to 11.40 kilometres per hour, where higher is faster. A second, age-graded series is drawn above it; the gap between the two is the age credit.
- Actual pace
- Age-graded pace
Results
| Date | Event | Distance | Result | Pace km/h | Placing |
|---|---|---|---|---|---|
| 2002-04-14 | Mt. Si 50 Miles Ultra RunUnited States | 50mi | 9:02:18 h | 8.903 | 19/24 |
| 2005-04-17 | 50mi | 9:03:58 h | 8.876 | 25/38 | |
| 2006-04-23 | 50mi | 7:59:50 h | 10.062 | 12/48 | |
| 2007-04-22 | 50mi | 8:02:05 h | 10.015 | 14/54 | |
| 2007-09-15 | 50km | 6:20:33 h | 7.883 | 18/86 | |
| 2007-10-06 | Endurance Challenge - Washington D.C. Trail 50 kmUnited States | 50km | 5:57:05 h | 8.401 | 10/75 |
| 2008-04-13 | 50mi | 8:28:14 h | 9.500 | 23/50 | |
| 2008-05-17 | Watershed Preserve 12 Hr Trail RaceUnited States | 12h | 89.978 km | 7.498 | 10/53 |
| 2008-08-23 | 100mi | 26:14:31 h | 6.133 | 23/77 | |
| 2008-09-13 | Cle Elum Ridge 50kUnited States | 50km | 6:41:00 h | 7.481 | 44/80 |
| 2009-05-16 | Watershed Preserve 12 Hr Trail RaceUnited States | 12h | 60.559 km | 5.047 | 39/66 |
| 2010-01-09 | Bridle Trails Winter Running FestivalUnited States | 50km | 5:29:00 h | 9.119 | 38/70 |
| 2010-04-09 | 50mi | 11:42:00 h | 6.878 | 17/26 | |
| 2010-05-15 | 12h | 88.819 km | 7.402 | 21/80 | |
| 2010-06-20 | 50mi | 10:26:45 h | 7.703 | 22/27 | |
| 2011-01-08 | Bridle Trails Winter Running FestivalUnited States | 50km | 5:25:10 h | 9.226 | 24/46 |
| 2011-03-06 | Lord Hill Trail RunUnited States | 50km | 5:24:20 h | 9.250 | 8/25 |
| 2011-05-14 | 12h | 99.787 km | 8.316 | 12/68 | |
| 2011-07-09 | 50km | 6:00:41 h | 8.318 | 8/17 | |
| 2011-08-05 | 100mi | 31:56:18 h | 5.039 | 3/8 | |
| 2011-10-01 | 50km | 6:07:01 h | 8.174 | 31/122 | |
| 2011-10-30 | Cougar Mountain Trail RunUnited States | 50km | 5:46:59 h | 8.646 | 7/56 |
| 2012-01-28 | Bridle Trails Winter Running FestivalUnited States | 50km | 4:27:59 h | 11.195 | 5/46 |
| 2012-02-26 | Lord Hill Trail RunUnited States | 50km | 5:54:29 h | 8.463 | 11/55 |
| 2012-06-23 | 50km | 5:46:10 h | 8.666 | 5/20 | |
| 2012-08-05 | 50km | 7:07:56 h | 7.010 | 8/18 | |
| 2012-09-15 | 100mi | 25:43:42 h | 6.255 | 20/73 | |
| 2013-10-05 | 50km | 6:44:43 h | 7.413 | 86/188 | |
| 2013-12-14 | 50km | 5:45:24 h | 8.686 | 54/183 | |
| 2014-05-17 | 12h | 60.551 km | 5.046 | 29/48 | |
| 2014-09-27 | 100mi | 24:53:27 h | 6.466 | 32/64 | |
| 2016-02-13 | Woolley Trail Runs 50kUnited States | 50km | 4:41:23 h | 10.662 | 2/20 |
| 2016-04-09 | 50mi | 10:38:00 h | 7.567 | 5/13 | |
| 2017-07-22 | 50km | 6:37:16 h | 7.552 | 87/188 | |
| 2017-09-23 | Middle Fork 50kUnited States | 50km | 6:38:51 h | 7.522 | 13/28 |
| 2022-06-18 | 50km | 5:38:14 h | 8.870 | 58/165 | |
| 2022-08-13 | 40mi | 13:52:45 h | 4.638 | 62/89 | |
| 2023-09-16 | 50km | 10:27:30 h | 4.781 | 31/67 | |
| 2024-08-04 | 50km | 8:59:23 h | 5.562 | 21/35 | |
| 2025-05-24 | 55km | 7:54:46 h | 6.951 | 22/31 | |
| 2025-06-07 | 50km | 6:57:34 h | 7.184 | 36/81 | |
| 2025-08-02 | 50km | 8:42:15 h | 5.744 | 50/170 |